Tiempo atmosférico en la estación meteorológica de Chinchilla, Albacete (880 m.)



Fecha
DESCASC
Temp. máxima en grados centígrados (hora)
DESCASC
Temp. mínima en grados centígrados (hora)
DESCASC
Temp. media en grados centígrados
DESCASC
Racha de viento máxima en m/sg (hora)
DESCASC
Velocidad máxima media en intervalos de 10 minutos(hora)
DESCASC
Precipitaciones diarias en mm
DESCASC
Precipitaciones de 00:00 a 06:00 en mm
DESCASC
Precipitaciones de 06:00 a 12:00 en mm
DESCASC
Precipitaciones de 12:00 a 18:00 en mm
DESCASC
Precipitaciones de 18:00 a 24:00 en mm
DESCASC
20-05-2018 22.7 (18:30) 7.8 (08:10) 15.3 10.28 (22:40) 6.39 (23:30) 0 0 0 0 0
19-05-2018 23.9 (17:50) 8.7 (09:10) 16.3 9.72 (17:30) 5.56 (17:00) 0 0 0 0 0
18-05-2018 22.4 (18:50) 7.6 (00:00) 15 12.22 (21:10) 8.33 (21:10) 0 0 0 0 0
17-05-2018 21.9 (18:00) 6.8 (00:00) 14.3 11.11 (21:10) 7.5 (21:20) 0 0 0 0 0
16-05-2018 22.5 (16:50) 6.9 (00:00) 14.7 10 (14:10) 6.94 (11:40) 0 0 0 0 0
15-05-2018 20.4 (19:30) 5 (00:00) 12.7 10 (06:40) 5.56 (07:00) 0 0 0 0 0
14-05-2018 18 (19:20) 4.8 (00:00) 11.4 10.28 (14:50) 6.39 (14:00) 0 0 0 0 0
13-05-2018 15 (20:00) 2.5 (00:00) 8.8 15.56 (18:40) 8.61 (01:20) 0 0 0 0 0
12-05-2018 19.7 (17:40) 11.4 (00:00) 15.6 13.33 (22:10) 8.06 (13:30) 0 0 0 0 0
11-05-2018 23.9 (19:10) 9 (06:10) 16.4 7.22 (19:30) 5 (04:20) 0.1 0 0.1 0 0
10-05-2018 22.1 (18:00) 11.1 (00:00) 16.6 12.22 (20:00) 9.17 (22:40) 7.4 0 0 0 7.4
09-05-2018 23.6 (17:40) 9.7 (00:00) 16.7 12.78 (17:40) 8.06 (21:20) 0 0 0 0 0
08-05-2018 21.7 (17:00) 9.9 (00:00) 15.8 11.67 (17:40) 7.5 (17:30) 0 0 0 0 0
07-05-2018 23 (17:20) 8.4 (00:00) 15.7 8.33 (23:20) 5 (23:20) 0 0 0 0 0
06-05-2018 20.9 (18:50) 7.4 (00:00) 14.1 9.44 (17:10) 5.83 (20:00) 1.4 1.4 0 0 0
05-05-2018 20.7 (19:10) 8.5 (00:00) 14.6 8.33 (23:50) 5.28 (23:50) 0.7 0.1 0 0 0.6
04-05-2018 19.5 (18:40) 2.9 (00:00) 11.2 9.72 (01:50) 5.28 (22:30) 0 0 0 0 0
03-05-2018 17.8 (17:30) 5.1 (00:00) 11.4 12.5 (15:10) 7.78 (12:20) 0 0 0 0 0
02-05-2018 15.1 (20:40) 3.5 (00:00) 9.3 13.33 (17:20) 7.78 (20:00) 0 0 0 0 0
01-05-2018 14.2 (17:50) -0.1 (09:20) 7 9.17 (22:20) 5.83 (22:20) 0 0 0 0 0
30-04-2018 12.2 (19:10) 3.9 (00:00) 8 11.67 (20:00) 6.67 (04:00) 0.8 0.4 0 0 0.4
29-04-2018 13.3 (00:00) 4.4 (00:00) 8.9 18.33 (15:20) 11.39 (16:40) 0.4 0 0 0 0.4
28-04-2018 22 (16:20) 9.9 (00:00) 15.9 10.83 (23:50) 5.83 (23:40) 1.9 0 0 0 1.9
27-04-2018 23.7 (18:30) 10.3 (00:00) 17 11.39 (19:30) 7.5 (22:30) 0.1 0 0 0 0.1
26-04-2018 22.6 (18:10) 9.3 (00:00) 16 9.17 (12:40) 6.11 (12:50) 0 0 0 0 0
25-04-2018 21 (15:20) 9.4 (00:00) 15.2 10.83 (14:40) 7.22 (16:30) 0 0 0 0 0
24-04-2018 23.6 (17:40) 10.2 (00:00) 16.9 15.28 (13:20) 10.56 (13:20) 0 0 0 0 0
23-04-2018 23.9 (17:30) 9.2 (00:00) 16.5 10.56 (09:30) 6.67 (20:00) 0 0 0 0 0
22-04-2018 21.1 (18:40) 7.9 (00:00) 14.5 12.22 (19:00) 8.33 (15:40) 0 0 0 0 0

Gráficas

Temp. máximas Temp. mínimas Temp. medias Precipitaciones Rachas de viento máximas Velocidades máximas media en intervalos de 10 minutos

Datos horarios

Fecha y hora oficial Temperatura (ºC) Velocidad del viento (km/h) Dirección del viento Racha (km/h) Dirección de racha Precipitación (mm) Presión (hPa) Tendencia (hPa) Humedad (%)
2018-05-21 23:00:00 13.1 14 Sudeste 31 Este 0 913.4 2.1 69
2018-05-21 22:00:00 14.7 10 Este 39 Nordeste 0 912.3 1.4 63
2018-05-21 21:00:00 14.8 24 Nordeste 42 Nordeste 0 911.6 0.5 58
2018-05-21 20:00:00 18.6 12 Noroeste 19 Noroeste 0 911.3 -0.6 41
2018-05-21 19:00:00 18.5 10 Noroeste 23 Noroeste 0 910.9 -0.8 45
2018-05-21 18:00:00 17 10 Sudoeste 31 Sudoeste 0.2 911.1 -1.1 48
2018-05-21 17:00:00 16.9 19 Sudoeste 27 Sudoeste 0 911.9 -0.7 45
2018-05-21 16:00:00 20.8 3 Noroeste 15 Norte 0 911.7 -1.3 38
2018-05-21 15:00:00 19.9 4 Oeste 18 Norte 0 912.2 -0.8 44
2018-05-21 14:00:00 17.3 7 Noroeste 19 Noroeste 0 912.6 -0.1 49
2018-05-21 13:00:00 18 3 Sur 10 Sur 0 913 0.7 51
2018-05-21 12:00:00 15.3 4 Sur 8 Sudeste 0 913 1 61
2018-05-21 11:00:00 12.1 0 Calma 2 Sur 0 912.7 0.5 81
2018-05-21 10:00:00 9.2 0 Calma 8 Nordeste 0 912.3 0.2 85
2018-05-21 09:00:00 9.5 0 Calma 5 Este 0 912 -0.3 84
2018-05-21 08:00:00 9.4 0 Calma 6 Este 0 912.2 -0.4 84
2018-05-21 07:00:00 9.2 3 Nordeste 12 Este 0 912.1 -1.1 84
2018-05-21 06:00:00 9.5 9 Este 14 Este 0 912.3 -1.2 83
2018-05-21 05:00:00 10.2 9 Este 12 Este 0 912.6 -1.2 82
2018-05-21 04:00:00 10.1 9 Este 14 Sudeste 0 913.2 -0.3 80
2018-05-21 03:00:00 10.9 12 Sudeste 15 Sudeste 0 913.5 0 78
2018-05-21 02:00:00 10.9 9 Sudeste 18 Sur 0 913.8 1.3 78
2018-05-21 01:00:00 12.5 15 Sur 29 Sur 0 913.5 1.2 70
2018-05-21 00:00:00 14.4 18 Sur 37 Sudeste 0 913.5 1.3 55
2018-05-20 23:00:00 16.1 13 Sudeste 37 Sudeste 0 912.5 0.5 44
2018-05-20 22:00:00 18.5 14 Sur 30 Sur 0 912.3 0.1 41
2018-05-20 21:00:00 18.1 21 Sur 34 Sudeste 0 912.2 -0.6 39
2018-05-20 20:00:00 19.2 14 Sudeste 27 Sudeste 0 912 -1.5 33
2018-05-20 19:00:00 19.7 13 Sur 30 Sur 0 912.2 -1.9 32
2018-05-20 18:00:00 21.3 18 Sudeste 32 Sur 0 912.8 -2 33
2018-05-20 17:00:00 21.8 14 Sudeste 35 Sudeste 0 913.5 -1.6 34
2018-05-20 16:00:00 21.4 9 Sudeste 25 Sur 0 914.1 -1.2 32
2018-05-20 15:00:00 20.5 9 Este 28 Sudeste 0 914.8 -0.4 34
2018-05-20 14:00:00 20.1 15 Sudeste 24 Sur 0 915.1 0.3 35
2018-05-20 13:00:00 17.6 4 Sudeste 17 Nordeste 0 915.3 0.7 42
2018-05-20 12:00:00 14.3 6 Norte 14 Norte 0 915.2 0.9 50
2018-05-20 11:00:00 10.7 7 Norte 12 Norte 0 914.8 0.6 62
2018-05-20 10:00:00 9.1 0 Calma 6 Sudeste 0 914.6 0.2 64
2018-05-20 09:00:00 8.9 0 Calma -- -- 0 914.3 -0.4 60
2018-05-20 08:00:00 7.9 0 Calma -- -- 0 914.2 -1 63
2018-05-20 07:00:00 9 0 Calma 8 Sudeste 0 914.4 -1.2 61
2018-05-20 06:00:00 9.6 4 Sudeste 6 Este 0 914.7 -1 61
2018-05-20 05:00:00 9.4 4 Sudeste 9 Este 0 915.2 -0.7 64
2018-05-20 04:00:00 9.3 9 Este 12 Este 0 915.6 0 63
2018-05-20 03:00:00 9.7 7 Sudeste 14 Sudeste 0 915.7 0.4 60
2018-05-20 02:00:00 10 12 Sudeste 15 Sudeste 0 915.9 0.7 55
2018-05-20 01:00:00 12.4 10 Este 20 Este 0 915.6 0.8 47
2018-05-20 00:00:00 13.2 10 Este 19 Este 0 915.3 0.8 40
2018-05-19 23:00:00 16.2 14 Este 25 Este 0 915.2 0.6 32
2018-05-19 22:00:00 19.7 11 Este 27 Sudeste 0 914.8 -0.2 29
2018-05-19 21:00:00 21.4 13 Este 30 Sudeste 0 914.5 -0.7 28
2018-05-19 20:00:00 22.4 17 Sudeste 34 Sudeste 0 914.6 -0.9 26
2018-05-19 19:00:00 22.9 12 Sudeste 31 Sudeste 0 915 -1.6 27
2018-05-19 18:00:00 22.7 13 Sudeste 35 Sudeste 0 915.2 -1.7 28
2018-05-19 17:00:00 22.8 20 Sudeste 33 Sudeste 0 915.5 -1.7 31
2018-05-19 16:00:00 21.7 17 Sudeste 33 Sudeste 0 916.6 -0.8 34
2018-05-19 15:00:00 20.4 16 Sudeste 28 Sudeste 0 916.9 -0.1 38
2018-05-19 14:00:00 18.2 5 Este 20 Nordeste 0 917.2 0.8 47
2018-05-19 13:00:00 16 8 Nordeste 21 Nordeste 0 917.4 1.5 51
2018-05-19 12:00:00 14.7 8 Nordeste 18 Nordeste 0 917 1.3 62
2018-05-19 11:00:00 12.2 4 Nordeste 13 Nordeste 0 916.4 1.1 73
2018-05-19 10:00:00 9.6 4 Nordeste 12 Nordeste 0 915.9 0.3 80
2018-05-19 09:00:00 8.8 0 Calma 7 Noroeste 0 915.7 -0.1 80
2018-05-19 08:00:00 9.6 0 Calma 8 Este 0 915.3 -0.6 80
2018-05-19 07:00:00 9.3 3 Este 8 Este 0 915.6 -0.8 81
2018-05-19 06:00:00 9.2 3 Este 11 Sudeste 0 915.8 -0.9 81
2018-05-19 05:00:00 9.2 8 Este 14 Este 0 915.9 -0.7 83
2018-05-19 04:00:00 9.3 11 Este 14 Este 0 916.4 -0.3 81
2018-05-19 03:00:00 9.9 11 Este 13 Este 0 916.7 0.2 77
2018-05-19 02:00:00 11.2 9 Este 15 Este 0 916.6 0.9 74
2018-05-19 01:00:00 11.7 10 Este 18 Este 0 916.7 1.4 71
2018-05-19 00:00:00 13.6 8 Este 24 Este 0 916.5 1.1 68
2018-05-18 23:00:00 14 16 Sudeste 33 Sudeste 0 915.7 1 61
2018-05-18 22:00:00 14.3 20 Sudeste 44 Este 0 915.3 0.5 59
2018-05-18 21:00:00 17.4 25 Este 41 Este 0 915.4 0.2 41
2018-05-18 20:00:00 19.8 16 Sudeste 27 Sudeste 0 914.7 -1 33
2018-05-18 19:00:00 21.1 15 Sudeste 27 Sur 0 914.8 -1.4 31
2018-05-18 18:00:00 21.3 17 Sur 29 Sur 0 915.2 -1.5 32
2018-05-18 17:00:00 19.4 17 Sur 29 Sur 0 915.7 -1.1 35
2018-05-18 16:00:00 18.9 12 Sur 25 Sur 0 916.2 -0.5 38
2018-05-18 15:00:00 18.6 6 Sudeste 22 Sudeste 0 916.7 0.2 40
2018-05-18 14:00:00 19.2 12 Sur 23 Sur 0 916.8 0.7 40
2018-05-18 13:00:00 16.9 6 Sudoeste 15 Sudeste 0 916.7 1.1 49
2018-05-18 12:00:00 15.3 6 Sudeste 10 Este 0 916.5 1.4 60
2018-05-18 11:00:00 13 3 Sudeste 8 Sur 0 916.1 1.3 70
2018-05-18 10:00:00 9.5 5 Sudeste 15 Este 0 915.6 0.7 84
2018-05-18 09:00:00 7.7 11 Sudeste 18 Este 0 915.1 0.3 86
2018-05-18 08:00:00 7.7 14 Este 17 Este 0 914.8 -0.1 84
2018-05-18 07:00:00 7.9 13 Este 16 Este 0 914.9 -0.7 84
2018-05-18 06:00:00 8 9 Sudeste 15 Este 0 914.8 -1.3 83
2018-05-18 05:00:00 8.8 10 Sudeste 16 Este 0 914.9 -1.2 82
2018-05-18 04:00:00 8.5 12 Sudeste 17 Sudeste 0 915.6 -0.4 81
2018-05-18 03:00:00 9.3 10 Sudeste 22 Sudeste 0 916.1 0.7 77
2018-05-18 02:00:00 10.2 11 Sudeste 17 Sudeste 0 916.1 1.2 74
2018-05-18 01:00:00 11.1 12 Sur 19 Sur 0 916 1.6 68
2018-05-18 00:00:00 12.6 15 Sur 27 Sur 0 915.4 1 61
2018-05-17 23:00:00 14.5 18 Sur 32 Sudoeste 0 914.9 0.7 54
2018-05-17 22:00:00 15.9 22 Sur 40 Sur 0 914.4 0.4 51
2018-05-17 21:00:00 17.6 22 Sur 37 Sur 0 914.4 -0.1 42
2018-05-17 20:00:00 20.5 21 Sur 39 Sur 0 914.2 -0.4 36
2018-05-17 19:00:00 19.1 17 Sur 32 Sur 0 914 -1 36
2018-05-17 18:00:00 20.1 12 Sudeste 35 Sur 0 914.5 -0.9 33
2018-05-17 17:00:00 20.7 18 Sur 37 Sur 0 914.6 -1 35
2018-05-17 16:00:00 19.2 18 Sudeste 36 Sudeste 0 915 -0.5 36
2018-05-17 15:00:00 19.3 18 Sur 36 Sur 0 915.4 -0.1 37
2018-05-17 14:00:00 18.8 21 Sudeste 34 Sudeste 0 915.6 0.7 39
2018-05-17 13:00:00 17.5 18 Sudeste 32 Sudeste 0 915.5 1 42
2018-05-17 12:00:00 15.6 11 Sudeste 20 Sudeste 0 915.5 1.3 51
2018-05-17 11:00:00 12.2 6 Sur 11 Sudeste 0 914.9 0.5 65
2018-05-17 10:00:00 8.4 5 Este 18 Este 0 914.5 0.2 71
2018-05-17 09:00:00 7.1 14 Este 18 Este 0 914.2 -0.4 71
2018-05-17 08:00:00 7.1 14 Este 17 Este 0 914.4 -0.3 70
2018-05-17 07:00:00 7.1 12 Sudeste 18 Sudeste 0 914.3 -0.6 68
2018-05-17 06:00:00 7.3 12 Sudeste 18 Sudeste 0 914.6 -0.9 67
2018-05-17 05:00:00 7.1 15 Sudeste 20 Sudeste 0 914.7 -1 66
2018-05-17 04:00:00 7.4 14 Sudeste 17 Sudeste 0 914.9 -0.5 63
2018-05-17 03:00:00 8.2 13 Sudeste 17 Sudeste 0 915.5 0.6 58
2018-05-17 02:00:00 9.5 12 Sudeste 18 Sudeste 0 915.7 1 53
2018-05-17 01:00:00 11.2 13 Sudeste 18 Sur 0 915.4 1.2 47
2018-05-17 00:00:00 13.1 12 Sudeste 23 Sudeste 0 914.9 0.7 42
2018-05-16 23:00:00 15.6 17 Sudeste 30 Sudeste 0 914.7 0.5 36
2018-05-16 22:00:00 18.6 20 Sudeste 33 Sudeste 0 914.2 -0.1 31
2018-05-16 21:00:00 20.4 17 Sudeste 31 Sudeste 0 914.2 -0.7 30
2018-05-16 20:00:00 20.9 13 Sudeste 32 Sudeste 0 914.2 -1.2 29
2018-05-16 19:00:00 22 11 Sur 32 Sur 0 914.3 -1.7 28
2018-05-16 18:00:00 21.4 9 Sudeste 29 Sur 0 914.9 -1.3 28
2018-05-16 17:00:00 21.5 18 Sur 35 Sudeste 0 915.4 -1.1 28
2018-05-16 16:00:00 20.8 17 Sudeste 34 Sudeste 0 916 -0.2 28
2018-05-16 15:00:00 20.3 15 Sudeste 36 Sudeste 0 916.2 -0.1 29
2018-05-16 14:00:00 19.2 19 Sudeste 32 Sudeste 0 916.5 1 31
2018-05-16 13:00:00 18.1 18 Sudeste 31 Este 0 916.2 1.1 36
2018-05-16 12:00:00 15.8 21 Sudeste 32 Sudeste 0 916.3 1.6 43
2018-05-16 11:00:00 13.2 10 Sudeste 20 Sudeste 0 915.5 0.9 55
2018-05-16 10:00:00 9.1 6 Este 13 Sudeste 0 915.1 0 58
2018-05-16 09:00:00 7.3 6 Este 12 Este 0 914.7 -0.6 68
2018-05-16 08:00:00 7.3 7 Este 10 Este 0 914.6 -0.7 69
2018-05-16 07:00:00 8 4 Norte 13 Este 0 915.1 -0.7 77
2018-05-16 06:00:00 8.5 12 Este 15 Este 0 915.3 -0.9 82
2018-05-16 05:00:00 8.5 12 Sudeste 16 Sudeste 0 915.3 -1.1 81
2018-05-16 04:00:00 8.5 13 Este 15 Sudeste 0 915.8 -0.4 79
2018-05-16 03:00:00 8.9 13 Sudeste 18 Sudeste 0 916.2 0.7 74
2018-05-16 02:00:00 10.5 11 Sudeste 21 Sur 0 916.4 1.3 66
2018-05-16 01:00:00 11.9 12 Sudeste 20 Sudeste 0 916.2 1.3 60
2018-05-16 00:00:00 13.6 10 Sur 21 Sur 0 915.5 0.8 49
2018-05-15 23:00:00 16.8 6 Sudeste 8 Sudeste 0 915.1 0 32
2018-05-15 22:00:00 19.1 4 Este 14 Nordeste 0 914.9 -0.6 29
2018-05-15 21:00:00 20 5 Nordeste 18 Norte 0 914.7 -1.3 29
2018-05-15 20:00:00 19.5 8 Nordeste 22 Oeste 0 915.1 -1.4 31
2018-05-15 19:00:00 19.4 9 Noroeste 22 Norte 0 915.5 -1.6 32
2018-05-15 18:00:00 18.6 6 Noroeste 22 Oeste 0 916 -1.4 34
2018-05-15 17:00:00 17.8 5 Noroeste 22 Sudoeste 0 916.5 -0.7 36
2018-05-15 16:00:00 15.6 8 Noroeste 18 Noroeste 0 917.1 -0.1 38
2018-05-15 15:00:00 14 5 Noroeste 21 Noroeste 0 917.4 0.4 42
2018-05-15 14:00:00 11.7 10 Norte 21 Norte 0 917.2 0.6 47
2018-05-15 13:00:00 11 6 Noroeste 18 Norte 0 917.2 0.7 50
2018-05-15 12:00:00 8.6 8 Norte 19 Norte 0 917 0.9 55
2018-05-15 11:00:00 7 14 Norte 21 Norte 0 916.6 0.6 58
2018-05-15 10:00:00 5.4 0 Calma 30 Nordeste 0 916.5 0.4 63
2018-05-15 09:00:00 5.2 15 Nordeste 26 Nordeste 0 916.1 -0.2 62
2018-05-15 08:00:00 5.7 13 Nordeste 28 Nordeste 0 916 -0.6 64
2018-05-15 07:00:00 6.4 20 Nordeste 36 Nordeste 0 916.1 -0.6 64
2018-05-15 06:00:00 6.9 17 Nordeste 29 Norte 0 916.3 -0.6 65
2018-05-15 05:00:00 8.4 6 Nordeste 17 Este 0 916.6 -0.2 52
2018-05-15 04:00:00 9.2 10 Nordeste 22 Nordeste 0 916.7 -0.1 46
2018-05-15 03:00:00 10.2 10 Nordeste 16 Norte 0 916.9 0.4 46
2018-05-15 02:00:00 9.9 9 Norte 11 Norte 0 916.8 0.7 47
2018-05-15 01:00:00 10.5 7 Norte 12 Norte 0 916.8 1 44
2018-05-15 00:00:00 11.7 9 Norte 24 Noroeste 0 916.5 0.8 41
2018-05-14 23:00:00 13.9 15 Norte 31 Norte 0 916.1 0.4 35
2018-05-14 22:00:00 15.8 21 Norte 35 Norte 0 915.8 -0.5 32
2018-05-14 21:00:00 17 18 Noroeste 34 Noroeste 0 915.7 -0.7 32
2018-05-14 20:00:00 16 15 Noroeste 34 Oeste 0 915.7 -1.2 34
2018-05-14 19:00:00 16.2 15 Noroeste 36 Oeste 0 916.3 -0.8 35
2018-05-14 18:00:00 16.7 18 Noroeste 35 Noroeste 0 916.4 -1.1 35
2018-05-14 17:00:00 15.4 17 Noroeste 33 Norte 0 916.9 -0.6 38
2018-05-14 16:00:00 14.7 18 Noroeste 35 Norte 0 917.1 -0.2 40
2018-05-14 15:00:00 13.1 15 Noroeste 37 Norte 0 917.5 0 42
2018-05-14 14:00:00 12.1 23 Noroeste 36 Noroeste 0 917.5 0.2 45
2018-05-14 13:00:00 11.2 13 Norte 24 Norte 0 917.3 0.6 48
2018-05-14 12:00:00 9.2 11 Noroeste 19 Noroeste 0 917.5 1 51
2018-05-14 11:00:00 7.3 10 Norte 24 Norte 0 917.3 0.7 54
2018-05-14 10:00:00 5.1 10 Norte 15 Norte 0 916.7 -0.1 57
2018-05-14 09:00:00 5 12 Norte 14 Norte 0 916.5 -0.4 55
2018-05-14 08:00:00 5.2 11 Norte 14 Norte 0 916.6 -0.6 52
2018-05-14 07:00:00 5.7 10 Norte 13 Norte 0 916.8 -0.8 48
2018-05-14 06:00:00 6.4 9 Norte 13 Norte 0 916.9 -1.1 46
2018-05-14 05:00:00 6.3 8 Norte 11 Norte 0 917.2 -1.1 45
2018-05-14 04:00:00 6.8 6 Norte 9 Norte 0 917.6 -0.6 43
2018-05-14 03:00:00 8.1 7 Norte 15 Norte 0 918 -0.1 39
2018-05-14 02:00:00 9.1 12 Norte 18 Norte 0 918.3 0.4 37
2018-05-14 01:00:00 9.2 9 Norte 21 Norte 0 918.2 0.7 36
2018-05-11 20:00:00 22.8 7 Sudoeste 26 Oeste 0 916.5 -1.3 35
2018-05-11 19:00:00 23 9 Sur 24 Sur 0 916.5 -1.8 37
2018-05-11 18:00:00 23.1 8 Sudoeste 22 Sudoeste 0 917.1 -1.7 37
2018-05-11 17:00:00 22.4 8 Sudoeste 19 Sudoeste 0 917.8 -1.2 41
2018-05-11 16:00:00 20.9 4 Sur 21 Oeste 0 918.3 -0.8 46
2018-05-11 15:00:00 19.3 4 Sur 14 Sudoeste 0 918.8 0 51
2018-05-11 14:00:00 16.8 5 Sur 15 Sudoeste 0 919 0.7 69
2018-05-11 13:00:00 14.7 7 Sudoeste 13 Sudoeste 0 919.1 1.2 82
2018-05-11 12:00:00 12 8 Sur 13 Sur 0 918.8 1.1 92
2018-05-11 11:00:00 10.7 10 Sur 13 Sur 0 918.3 1.2 93
2018-05-11 10:00:00 10.4 5 Sur 11 Sur 0 917.9 1.2 94
2018-05-11 09:00:00 9.8 5 Sur 10 Sur 0.1 917.7 0.9 94
2018-05-11 08:00:00 9.8 7 Sudeste 18 Este 0 917.1 0.2 94
2018-05-11 07:00:00 9.3 14 Sudeste 19 Este 0 916.7 -0.6 94
2018-05-11 06:00:00 9.1 13 Este 21 Sudeste 0 916.8 -0.4 93
2018-05-11 05:00:00 9.6 18 Este 23 Este 0 916.9 -0.2 93
2018-05-11 04:00:00 10 15 Sudeste 19 Sudeste 0 917.3 0.3 91
2018-05-11 03:00:00 10.9 6 Sudeste 14 Sudeste 0 917.2 0.5 89
2018-05-11 02:00:00 11.1 9 Sudeste 14 Sudeste 0 917.1 1.1 90
2018-05-11 01:00:00 11.6 6 Sur 17 Sur 0 917 0.2 90
2018-05-11 00:00:00 11.7 11 Sur 27 Sur 0 916.7 1.2 88
2018-05-10 23:00:00 11.4 18 Sur 44 Sur 3.2 916 1.3 89
2018-05-10 22:00:00 12.2 9 Este 32 Sudeste 4.2 916.8 1.8 88
2018-05-10 21:00:00 14.2 23 Sur 42 Sudoeste 0 915.5 1.3 73
2018-05-10 20:00:00 17.5 30 Sur 44 Sur 0 914.7 0.2 59
2018-05-10 19:00:00 17.7 26 Sur 35 Sur 0 915 0.2 50
2018-05-10 18:00:00 21.8 2 Noroeste 21 Norte 0 914.2 -1 40
2018-05-10 17:00:00 20.7 8 Norte 22 Norte 0 914.5 -0.8 44
2018-05-10 16:00:00 19.8 10 Noroeste 24 Norte 0 914.8 0 47
2018-05-10 15:00:00 17.9 11 Noroeste 22 Noroeste 0 915.2 0.8 60
2018-05-10 14:00:00 15.7 6 Noroeste 18 Norte 0 915.3 1.6 71
2018-05-10 13:00:00 13.9 12 Norte 28 Norte 0 914.8 1.2 83
2018-05-10 12:00:00 13.3 20 Norte 34 Norte 0 914.4 1.8 83
2018-05-10 11:00:00 12.9 20 Norte 29 Norte 0 913.7 1.9 87
2018-05-10 10:00:00 12.6 14 Norte 20 Norte 0 913.6 1.6 90
2018-05-10 09:00:00 12.4 8 Noroeste 18 Noroeste 0 912.6 0.6 91
2018-05-10 08:00:00 12.5 8 Noroeste 25 Noroeste 0 911.8 0.1 90
2018-05-10 07:00:00 13.1 17 Noroeste 31 Noroeste 0 912 0.1 87
2018-05-10 06:00:00 13.4 13 Noroeste 31 Noroeste 0 912 0.1 88
2018-05-10 05:00:00 13.2 21 Noroeste 40 Noroeste 0 911.7 -0.1 87
2018-05-10 04:00:00 13.6 23 Noroeste 39 Oeste 0 911.9 0.4 87
2018-05-10 03:00:00 13.6 22 Noroeste 33 Noroeste 0 911.9 1 88
2018-05-10 02:00:00 13.8 23 Noroeste 36 Noroeste 0 911.8 1.5 86
2018-05-10 01:00:00 14.4 21 Noroeste 36 Noroeste 0 911.5 1.5 83
2018-05-10 00:00:00 14.8 18 Noroeste 34 Noroeste 0 910.9 1 79
2018-05-09 23:00:00 15.2 23 Noroeste 41 Oeste 0 910.3 0.7 76
2018-05-09 22:00:00 17.3 24 Noroeste 42 Noroeste 0 910 0.7 67
2018-05-09 21:00:00 19.1 23 Oeste 42 Oeste 0 909.9 0.1 57
2018-05-09 20:00:00 20.2 14 Oeste 37 Noroeste 0 909.6 -0.9 47
2018-05-09 19:00:00 21.5 23 Noroeste 43 Noroeste 0 909.3 -1.7 37
2018-05-09 18:00:00 22.3 21 Noroeste 46 Noroeste 0 909.8 -1.8 36
2018-05-09 17:00:00 21.5 18 Norte 37 Noroeste 0 910.5 -1.5 41
2018-05-09 16:00:00 20.8 18 Noroeste 32 Norte 0 911 -1.4 44
2018-05-09 15:00:00 19.8 15 Noroeste 33 Noroeste 0 911.6 -0.7 47
2018-05-09 14:00:00 18.4 14 Noroeste 31 Oeste 0 912 -0.2 54
2018-05-09 13:00:00 16.4 10 Noroeste 21 Noroeste 0 912.4 0.9 64
2018-05-09 12:00:00 12.9 13 Norte 25 Noroeste 0 912.3 1.2 74
2018-05-09 11:00:00 12.4 12 Norte 18 Norte 0 912.2 1.4 80
2018-05-09 10:00:00 10.4 3 Norte 11 Norte 0 911.5 0.6 87
2018-05-09 09:00:00 9.9 7 Norte 16 Norte 0 911.1 -0.5 86
2018-05-09 08:00:00 10.4 10 Norte 14 Norte 0 910.8 -1.3 86
2018-05-09 07:00:00 10.4 10 Norte 14 Norte 0 910.9 -1.8 86
2018-05-09 06:00:00 10.7 0 Calma 17 Norte 0 911.6 -0.9 82
2018-05-09 05:00:00 11.3 11 Norte 18 Norte 0 912.1 -0.4 80
2018-05-09 04:00:00 11.8 12 Norte 23 Noroeste 0 912.7 0.3 77
2018-05-09 03:00:00 11.8 3 Noroeste 9 Noroeste 0 912.5 0.4 78
2018-05-09 02:00:00 12.5 0 Calma 4 Sudeste 0 912.5 0.5 75
2018-05-09 01:00:00 12.6 3 Sudeste 6 Sudeste 0 912.4 0.9 73
2018-05-09 00:00:00 13.5 4 Sur 11 Sur 0 912.1 0.5 70
2018-05-08 23:00:00 14.9 6 Sudoeste 26 Sudoeste 0 912 0.6 62
2018-05-08 22:00:00 18.5 2 Norte 14 Nordeste 0 911.5 0.2 44
2018-05-08 21:00:00 19 6 Nordeste 16 Nordeste 0 911.6 -0.3 43
2018-05-08 20:00:00 19.4 8 Nordeste 31 Nordeste 0 911.4 -0.6 44
2018-05-08 19:00:00 20.1 16 Norte 34 Nordeste 0 911.3 -1.2 41
2018-05-08 18:00:00 17.8 21 Norte 42 Norte 0 911.9 -1.2 44
2018-05-08 17:00:00 20.3 13 Norte 26 Norte 0 912 -1.4 38
2018-05-08 16:00:00 19.5 12 Noroeste 24 Noroeste 0 912.5 -0.9 44
2018-05-08 15:00:00 18 15 Noroeste 25 Noroeste 0 913.1 -0.5 48
2018-05-08 14:00:00 16.4 13 Norte 24 Noroeste 0 913.4 0.2 54
2018-05-08 13:00:00 14.2 12 Noroeste 23 Norte 0 913.4 0.4 64
2018-05-08 12:00:00 13.2 13 Norte 20 Norte 0 913.6 0.8 64
2018-05-08 11:00:00 13 5 Noroeste 15 Norte 0 913.2 0.4 70
2018-05-08 10:00:00 11.2 0 Calma 4 Norte 0 913 0.1 78
2018-05-08 09:00:00 10.7 0 Calma 7 Este 0 912.8 -0.1 79
2018-05-08 08:00:00 10.5 4 Sudeste 8 Sudeste 0 912.8 -0.4 77
2018-05-08 07:00:00 10.4 5 Sudeste 8 Sudeste 0 912.9 -1 77
2018-05-08 06:00:00 10.1 5 Sudeste 9 Sudeste 0 912.9 -1.4 70
2018-05-08 05:00:00 10.4 7 Sudeste 11 Sudeste 0 913.2 -0.9 68
2018-05-08 04:00:00 10.5 7 Sudeste 15 Este 0 913.9 -0.3 67
2018-05-08 03:00:00 10.8 10 Sudeste 18 Este 0 914.3 0.6 64
2018-05-08 02:00:00 10.9 14 Este 21 Este 0 914.1 0.7 64
2018-05-08 01:00:00 11.6 12 Sudeste 18 Sudeste 0 914.2 1.4 61
2018-05-08 00:00:00 13.8 13 Sudeste 30 Este 0 913.7 0.6 51
2018-05-07 23:00:00 17 13 Sudeste 20 Este 0 913.4 0.4 37
2018-05-07 22:00:00 19.9 4 Este 13 Nordeste 0 912.8 -0.4 31
2018-05-07 21:00:00 20.9 0 Calma 20 Sudeste 0 913.1 -0.9 30
2018-05-07 20:00:00 22.4 6 Sudeste 20 Sudeste 0 913 -1.9 29
2018-05-07 19:00:00 22.6 9 Sur 24 Sur 0 913.2 -2.3 30
2018-05-07 18:00:00 22.5 8 Sur 23 Sudoeste 0 914 -2 30
2018-05-07 17:00:00 22.7 9 Sudeste 22 Sudeste 0 914.9 -1.5 31
2018-05-07 16:00:00 20.7 7 Sur 21 Sudeste 0 915.5 -1 36
2018-05-07 15:00:00 19.1 5 Sudeste 21 Sudeste 0 916 -0.3 40
2018-05-07 14:00:00 18.5 3 Este 17 Este 0 916.4 0.9 41
2018-05-07 13:00:00 17.5 8 Este 13 Este 0 916.5 1 48
2018-05-07 12:00:00 14.3 4 Sudoeste 9 Sudoeste 0 916.3 1.4 65
2018-05-07 11:00:00 11.4 3 Sur 5 Sudeste 0 915.5 0.4 82
2018-05-07 10:00:00 8.8 3 Este 7 Este 0 915.5 -0.1 83
2018-05-07 09:00:00 8.5 7 Este 11 Este 0 914.9 -1.2 83
2018-05-07 08:00:00 9.1 10 Este 12 Este 0 915.1 -1.3 81
2018-05-07 07:00:00 10.1 6 Este 9 Este 0 915.6 -0.9 82
2018-05-07 06:00:00 10.2 4 Sudeste 9 Sudeste 0 916.1 -0.3 81
2018-05-07 05:00:00 10.4 3 Sur 14 Este 0 916.4 -0.2 80
2018-05-07 04:00:00 10.2 9 Este 13 Este 0 916.5 -0.2 80
2018-05-07 03:00:00 10.1 10 Este 14 Sudeste 0 916.4 -0.1 80
2018-05-07 02:00:00 10.1 11 Sudeste 15 Sudeste 0 916.6 0.3 76
2018-05-07 01:00:00 10.9 10 Sudeste 21 Sudeste 0 916.7 1 71
2018-05-07 00:00:00 11.9 12 Este 27 Sudeste 0 916.5 1 62
2018-05-06 23:00:00 13.7 17 Sudeste 34 Sudeste 0 916.3 0.7 51
2018-05-06 22:00:00 17.1 18 Sudeste 30 Sudeste 0 915.7 -0.1 42
2018-05-06 21:00:00 17.1 16 Sudeste 33 Sudeste 0 915.5 -0.6 42
2018-05-06 20:00:00 18.6 21 Sudeste 32 Sur 0 915.6 -0.8 42
2018-05-06 19:00:00 18.5 19 Sudeste 33 Sudeste 0 915.8 -1.1 38
2018-05-06 18:00:00 18.8 15 Sudeste 34 Sudeste 0 916.1 -1.4 42
2018-05-06 17:00:00 19.8 18 Sur 31 Sudeste 0 916.4 -1.3 40
2018-05-06 16:00:00 19.9 15 Sudeste 31 Sudeste 0 916.9 -1.1 40
2018-05-06 15:00:00 19.4 17 Sudeste 28 Sudeste 0 917.5 -0.4 41
2018-05-06 14:00:00 17.7 15 Sudeste 26 Sudeste 0 917.7 0.5 54
2018-05-06 13:00:00 13.8 6 Nordeste 14 Norte 0 918 1.4 69
2018-05-06 12:00:00 13.7 8 Sudeste 19 Sudeste 0 917.9 1.4 76
2018-05-06 11:00:00 10.9 11 Sudeste 17 Sudeste 0 917.2 0.9 89
2018-05-06 10:00:00 8.1 8 Este 14 Este 0 916.6 0.2 89
2018-05-06 09:00:00 7.9 11 Este 14 Este 0 916.5 -0.1 87
2018-05-06 08:00:00 8 8 Este 12 Sudeste 0 916.3 -0.5 86
2018-05-06 07:00:00 8.1 4 Este 10 Este 0 916.4 -0.5 79
2018-05-06 06:00:00 8.2 5 Este 12 Este 0 916.6 -0.7 80
2018-05-06 05:00:00 8.2 7 Este 15 Este 0 916.8 -0.3 84
2018-05-06 04:00:00 8.1 7 Este 15 Este 0 916.9 -0.5 88
2018-05-06 03:00:00 8.7 10 Sudeste 16 Este 0 917.3 0.5 88
2018-05-06 02:00:00 8.9 11 Sudeste 27 Sudeste 1.4 917.1 1 87
2018-05-06 01:00:00 10.8 16 Este 28 Sudeste 0 917.4 2 69
2018-05-06 00:00:00 11.5 19 Este 30 Este 0 916.8 1.4 68
2018-05-05 23:00:00 12.3 14 Sudeste 23 Sudeste 0 916.1 1.2 76
2018-05-05 22:00:00 13.2 13 Sur 24 Sur 0 915.4 0.8 75
2018-05-05 21:00:00 13.3 15 Sur 27 Sudeste 0.6 915.4 0.3 74
2018-05-05 20:00:00 18.1 9 Norte 20 Noroeste 0 914.9 -0.6 36
2018-05-05 19:00:00 19.7 12 Noroeste 22 Noroeste 0 914.6 -1 36
2018-05-05 18:00:00 19.4 7 Oeste 19 Noroeste 0 915.1 -0.8 37
2018-05-05 17:00:00 18 4 Noroeste 19 Noroeste 0 915.5 -0.4 39
2018-05-05 16:00:00 18 4 Noroeste 14 Noroeste 0 915.6 -0.3 39
2018-05-05 15:00:00 16.7 5 Norte 19 Noroeste 0 915.9 0.3 44
2018-05-05 14:00:00 16.9 8 Oeste 16 Sudoeste 0 915.9 0.9 45
2018-05-05 13:00:00 16.5 6 Sur 12 Sudoeste 0 915.9 1.3 49
2018-05-05 12:00:00 13.2 3 Sur 6 Sudeste 0 915.6 1.3 69
2018-05-05 11:00:00 10.1 0 Calma 9 Este 0 915 0.8 74
2018-05-05 10:00:00 8.8 7 Este 9 Este 0 914.6 0.3 79
2018-05-05 09:00:00 8.7 6 Este 10 Sudeste 0 914.3 0.1 80
2018-05-05 08:00:00 8.8 9 Sudeste 14 Sudeste 0 914.2 -0.2 82
2018-05-05 07:00:00 8.7 10 Sudeste 14 Este 0 914.3 -0.6 82
2018-05-05 06:00:00 8.6 9 Sudeste 15 Sudeste 0 914.2 -0.6 79
2018-05-05 05:00:00 8.7 8 Sudeste 13 Sudeste 0 914.4 -0.5 77
2018-05-05 04:00:00 9.2 10 Sudeste 19 Sudeste 0 914.9 0.5 76
2018-05-05 03:00:00 9.4 13 Sudeste 23 Sudeste 0 914.8 0.8 75
2018-05-05 02:00:00 9.8 15 Este 21 Este 0 914.9 1.2 74
2018-05-05 01:00:00 10 13 Sudeste 21 Sudeste 0.1 914.4 1.2 73
2018-05-05 00:00:00 11.2 13 Sudeste 25 Sudeste 0 914 1.2 64
2018-05-04 23:00:00 12.9 17 Sudeste 28 Sudeste 0 913.7 1.2 49
2018-05-04 22:00:00 15.2 5 Este 22 Norte 0 913.2 0.9 38
2018-05-04 21:00:00 15.9 8 Nordeste 17 Nordeste 0 912.8 0.3 38
2018-05-04 20:00:00 17.4 5 Nordeste 12 Sudeste 0 912.5 -0.1 35
2018-05-04 19:00:00 18.8 3 Nordeste 13 Este 0 912.3 -0.3 35
2018-05-04 18:00:00 17.3 0 Calma 18 Norte 0 912.5 0 38
2018-05-04 17:00:00 17.5 4 Sudeste 18 Norte 0 912.6 0.3 40
2018-05-04 16:00:00 16.4 7 Noroeste 18 Norte 0 912.6 0.5 40
2018-05-04 15:00:00 16.5 5 Sudeste 15 Sudeste 0 912.5 0.8 42
2018-05-04 14:00:00 14 4 Nordeste 17 Norte 0 912.3 1.7 48
2018-05-04 13:00:00 10.9 10 Norte 20 Norte 0 912.1 1.6 55
2018-05-04 12:00:00 9.2 8 Noroeste 14 Norte 0 911.7 1.5 61
2018-05-04 11:00:00 5.8 2 Oeste 6 Oeste 0 910.6 0.5 76
2018-05-04 10:00:00 3.5 2 Oeste 10 Norte 0 910.5 0.2 75
2018-05-04 09:00:00 3.6 0 Calma 15 Nordeste 0 910.2 -0.2 72
2018-05-04 08:00:00 4.6 11 Norte 20 Norte 0 910.1 -0.5 70
2018-05-04 07:00:00 4.8 14 Norte 21 Norte 0 910.3 -0.9 68
2018-05-04 06:00:00 5.6 0 Calma 18 Nordeste 0 910.4 -1.1 63
2018-05-04 05:00:00 6.3 8 Norte 22 Nordeste 0 910.6 -1.2 61
2018-05-04 04:00:00 7.7 12 Nordeste 31 Nordeste 0 911.2 -0.7 55
2018-05-04 03:00:00 8.6 16 Nordeste 29 Nordeste 0 911.5 0.3 50
2018-05-04 02:00:00 10.2 16 Nordeste 35 Nordeste 0 911.8 0.8 45
2018-05-04 01:00:00 11.1 15 Nordeste 29 Nordeste 0 911.9 1.5 40
2018-05-04 00:00:00 11.8 14 Norte 23 Noroeste 0 911.2 0.8 37
2018-05-03 23:00:00 13.6 16 Norte 38 Norte 0 911 0.4 35
2018-05-03 22:00:00 15.5 23 Norte 44 Norte 0 910.4 -0.5 31
2018-05-03 21:00:00 16.4 24 Norte 43 Norte 0 910.4 -1 31
2018-05-03 20:00:00 16.4 24 Noroeste 44 Noroeste 0 910.6 -1.1 32
2018-05-03 19:00:00 17.7 21 Noroeste 44 Norte 0 910.9 -1.2 32
2018-05-03 18:00:00 17 22 Noroeste 45 Norte 0 911.4 -1.4 35
2018-05-03 17:00:00 16.1 21 Norte 42 Norte 0 911.7 -1.4 40
2018-05-03 16:00:00 16.2 21 Noroeste 45 Noroeste 0 912.1 -0.8 41
2018-05-03 15:00:00 14.2 17 Noroeste 39 Norte 0 912.8 0.1 49
2018-05-03 14:00:00 12.9 23 Norte 38 Norte 0 913.1 0.9 51
2018-05-03 13:00:00 11.5 22 Norte 41 Norte 0 912.9 0.6 59
2018-05-03 12:00:00 9.9 23 Norte 37 Norte 0 912.7 0.4 63
2018-05-03 11:00:00 7.4 20 Norte 33 Norte 0 912.2 -0.3 65
2018-05-03 10:00:00 5.2 13 Norte 22 Norte 0 912.3 -0.5 67
2018-05-03 09:00:00 5.4 13 Norte 25 Norte 0 912.3 -1.1 61
2018-05-03 08:00:00 6.2 13 Noroeste 31 Norte 0 912.5 -1.1 57
2018-05-03 07:00:00 6.5 10 Noroeste 21 Noroeste 0 912.8 -1.1 54
2018-05-03 06:00:00 7.3 10 Noroeste 23 Noroeste 0 913.4 -0.8 49
2018-05-03 05:00:00 8.1 11 Noroeste 24 Noroeste 0 913.6 -0.3 46
2018-05-03 04:00:00 8.4 15 Noroeste 31 Noroeste 0 913.9 0.2 45
2018-05-03 03:00:00 8.5 15 Noroeste 32 Noroeste 0 914.2 0.9 46
2018-05-03 02:00:00 8.9 15 Noroeste 27 Noroeste 0 913.9 0.7 45
2018-05-03 01:00:00 9.1 12 Noroeste 29 Noroeste 0 913.7 0.6 43
2018-05-03 00:00:00 10.2 15 Noroeste 27 Noroeste 0 913.3 0.1 41
2018-05-02 23:00:00 11.6 20 Noroeste 40 Noroeste 0 913.2 0.2 37
2018-05-02 22:00:00 13.5 23 Noroeste 41 Noroeste 0 913.1 -0.2 34
2018-05-02 21:00:00 13.6 22 Noroeste 40 Noroeste 0 913.2 -0.4 32
2018-05-02 20:00:00 14.1 28 Noroeste 45 Oeste 0 913 -1.1 32
2018-05-02 19:00:00 13.7 21 Noroeste 37 Oeste 0 913.3 -0.8 32
2018-05-02 18:00:00 14.7 19 Noroeste 48 Noroeste 0 913.6 -0.9 32
2018-05-02 17:00:00 12.5 21 Noroeste 43 Norte 0 914.1 -0.5 33
2018-05-02 16:00:00 13.1 19 Noroeste 42 Noroeste 0 914.1 -0.1 35
2018-05-02 15:00:00 12.5 20 Noroeste 78 Noroeste 0 914.5 0.9 38
2018-05-02 14:00:00 11.1 18 Noroeste 37 Noroeste 0 914.6 1.5 44
2018-05-02 13:00:00 9.8 19 Noroeste 33 Noroeste 0 914.2 1.3 54
2018-05-02 12:00:00 7.2 18 Noroeste 28 Noroeste 0 913.6 1.3 71
2018-05-02 11:00:00 4.9 17 Noroeste 27 Noroeste 0 913.1 0.6 79
2018-05-02 10:00:00 3.9 11 Noroeste 28 Noroeste 0 912.9 0.4 81
2018-05-02 09:00:00 3.6 17 Noroeste 28 Noroeste 0 912.3 -0.3 80
2018-05-02 08:00:00 3.9 18 Noroeste 29 Noroeste 0 912.5 -0.1 79
2018-05-02 07:00:00 3.8 16 Noroeste 27 Noroeste 0 912.5 -0.1 81
2018-05-02 06:00:00 3.8 15 Noroeste 27 Noroeste 0 912.6 0.1 80
2018-05-02 05:00:00 3.9 13 Noroeste 24 Noroeste 0 912.6 0 79
2018-05-02 04:00:00 4.3 15 Noroeste 29 Noroeste 0 912.6 0.2 74
2018-05-02 03:00:00 5 18 Noroeste 32 Noroeste 0 912.5 0.6 70
2018-05-02 02:00:00 5.6 23 Noroeste 31 Noroeste 0 912.6 0.8 65
2018-05-02 01:00:00 6.1 9 Norte 14 Norte 0 912.4 1 46
2018-05-02 00:00:00 6.5 10 Norte 18 Norte 0 911.9 0.7 44
2018-05-01 23:00:00 8 13 Norte 33 Norte 0 911.8 0.4 39
2018-05-01 22:00:00 10.1 14 Norte 31 Norte 0 911.4 -0.2 33
2018-05-01 21:00:00 11.4 2 Norte 32 Norte 0 911.2 -0.8 32
2018-05-01 20:00:00 11.7 9 Norte 22 Noroeste 0 911.4 -1 31
2018-05-01 19:00:00 13.1 10 Norte 30 Noroeste 0 911.6 -0.8 29
2018-05-01 18:00:00 12.4 10 Norte 23 Norte 0 912 -0.7 30
2018-05-01 17:00:00 12.6 14 Noroeste 31 Noroeste 0 912.4 -0.3 33
2018-05-01 16:00:00 10.9 13 Norte 27 Noroeste 0 912.4 0.2 37
2018-05-01 15:00:00 9.4 12 Norte 27 Norte 0 912.7 0.7 41
2018-05-01 14:00:00 7.9 14 Norte 31 Noroeste 0 912.7 1.4 47
2018-05-01 13:00:00 6.6 17 Norte 29 Norte 0 912.2 1.3 54
2018-05-01 12:00:00 4.5 14 Norte 23 Noroeste 0 912 1.1 77
2018-05-01 11:00:00 2.3 11 Norte 18 Noroeste 0 911.3 0.7 93
2018-05-01 10:00:00 0.1 9 Norte 13 Norte 0 910.9 0.1 95
2018-05-01 09:00:00 0 6 Norte 11 Norte 0 910.9 -0.2 94
2018-05-01 08:00:00 0.2 8 Norte 13 Norte 0 910.6 -0.7 93
2018-05-01 07:00:00 0.8 10 Norte 14 Norte 0 910.8 -1.2 92
2018-05-01 06:00:00 1.2 9 Norte 13 Noroeste 0 911.1 -1 89
2018-05-01 05:00:00 1.5 9 Norte 13 Noroeste 0 911.3 -1 86
2018-05-01 04:00:00 1.9 9 Norte 16 Noroeste 0 912 -0.5 84
2018-05-01 03:00:00 2.6 10 Noroeste 19 Noroeste 0 912.1 -0.2 81
2018-05-01 02:00:00 2.7 10 Norte 22 Noroeste 0 912.3 0 79
2018-05-01 01:00:00 4.3 12 Noroeste 26 Noroeste 0 912.5 0.6 71
2018-05-01 00:00:00 4.8 15 Noroeste 38 Oeste 0.4 912.3 0.5 76
2018-04-30 23:00:00 6.3 21 Noroeste 38 Noroeste 0 912.3 0.5 65
2018-04-30 22:00:00 7.3 19 Noroeste 42 Noroeste 0 911.9 0.2 61
2018-04-30 21:00:00 9.1 17 Noroeste 36 Noroeste 0 911.8 -0.5 45
2018-04-30 20:00:00 10.6 24 Noroeste 42 Noroeste 0 911.8 -1.2 38
2018-04-30 19:00:00 11.7 19 Noroeste 32 Oeste 0 911.7 -1.4 39
2018-04-30 18:00:00 9.1 13 Norte 26 Norte 0 912.3 -1.2 49
2018-04-30 17:00:00 9.5 15 Noroeste 33 Noroeste 0 913 -0.6 47
2018-04-30 16:00:00 9.4 15 Noroeste 34 Noroeste 0 913.1 -0.1 49
2018-04-30 15:00:00 9.2 21 Noroeste 38 Oeste 0 913.5 0.5 51
2018-04-30 14:00:00 8.4 15 Noroeste 36 Oeste 0 913.6 0.8 59
2018-04-30 13:00:00 7.2 19 Noroeste 30 Noroeste 0 913.2 0.7 64
2018-04-30 12:00:00 5.9 20 Noroeste 28 Noroeste 0 913 0.8 74
2018-04-30 11:00:00 5 13 Noroeste 30 Noroeste 0 912.8 0.4 83
2018-04-30 10:00:00 4 8 Noroeste 21 Oeste 0 912.5 -0.2 84
2018-04-30 09:00:00 4 13 Noroeste 22 Noroeste 0 912.2 -0.5 85
2018-04-30 08:00:00 4.7 17 Noroeste 23 Noroeste 0 912.4 -0.6 85
2018-04-30 07:00:00 4.8 18 Noroeste 31 Noroeste 0 912.7 -0.9 86
2018-04-30 06:00:00 4.4 15 Noroeste 29 Noroeste 0 912.7 -1.2 87
2018-04-30 05:00:00 5 17 Noroeste 30 Oeste 0 913 -0.6 86
2018-04-30 04:00:00 5.2 24 Noroeste 33 Oeste 0 913.6 -0.5 85
2018-04-30 03:00:00 5.4 16 Oeste 30 Noroeste 0.1 913.9 0.9 89
2018-04-30 02:00:00 5.5 19 Noroeste 35 Noroeste 0 913.6 0.9 88
2018-04-30 01:00:00 5.8 21 Noroeste 36 Noroeste 0.3 914.1 2.1 84
2018-04-30 00:00:00 6.6 17 Noroeste 28 Oeste 0 913 1.3 74
2018-04-29 23:00:00 7.4 23 Oeste 39 Oeste 0.2 912.7 1.4 68
2018-04-29 22:00:00 9 25 Oeste 48 Oeste 0 912 1.1 55
2018-04-29 21:00:00 10 30 Oeste 53 Oeste 0 911.7 0.7 50
2018-04-29 20:00:00 10.1 28 Oeste 57 Oeste 0 911.3 0.5 58
2018-04-29 19:00:00 9.6 27 Noroeste 54 Oeste 0.2 910.9 0.4 55
2018-04-29 18:00:00 9.4 31 Oeste 58 Oeste 0 911 0.7 56
2018-04-29 17:00:00 8.8 33 Oeste 64 Oeste 0 910.8 0.9 63
2018-04-29 16:00:00 10 37 Oeste 66 Oeste 0 910.5 1.6 55
2018-04-29 15:00:00 8.7 35 Oeste 59 Noroeste 0 910.3 2.3 58
2018-04-29 14:00:00 8.1 32 Oeste 61 Oeste 0 909.9 2.4 60
2018-04-29 13:00:00 7.5 30 Oeste 55 Noroeste 0 908.9 1.5 65
2018-04-29 12:00:00 5.7 27 Oeste 47 Noroeste 0 908 1.3 70
2018-04-29 11:00:00 5.1 23 Oeste 49 Oeste 0 907.5 1.7 70
2018-04-29 10:00:00 4.5 15 Noroeste 42 Oeste 0 907.4 1.2 73
2018-04-29 09:00:00 5.7 21 Oeste 38 Oeste 0 906.7 0.3 66
2018-04-29 08:00:00 5.4 18 Noroeste 30 Oeste 0 905.8 -1.1 70
2018-04-29 07:00:00 5.8 20 Noroeste 41 Noroeste 0 906.2 -1.1 70
2018-04-29 06:00:00 6.8 25 Noroeste 37 Noroeste 0 906.4 -1.2 68
2018-04-29 05:00:00 8.1 23 Noroeste 42 Noroeste 0 906.9 -0.8 60
2018-04-29 04:00:00 8.8 19 Noroeste 37 Noroeste 0 907.3 -0.4 60
2018-04-29 03:00:00 9.4 21 Noroeste 34 Noroeste 0 907.6 -0.2 59
2018-04-29 02:00:00 10.6 24 Noroeste 39 Noroeste 0 907.7 0.7 59
2018-04-29 01:00:00 11.9 18 Noroeste 32 Noroeste 0 907.7 0.8 61
2018-04-29 00:00:00 13.3 18 Noroeste 39 Norte 0 907.8 0.6 62
2018-04-28 23:00:00 13.4 11 Nordeste 32 Este 0 907 -0.8 66
2018-04-28 22:00:00 13 13 Este 23 Nordeste 1.1 906.9 -1.2 76
2018-04-28 21:00:00 16.8 8 Nordeste 21 Sudoeste 0.3 907.2 -1.6 52
2018-04-28 20:00:00 16.2 6 Norte 27 Norte 0.5 907.8 -1.7 51
2018-04-28 19:00:00 19.6 11 Norte 22 Noroeste 0 908.1 -1.8 34
2018-04-28 18:00:00 18.2 12 Norte 22 Norte 0 908.8 -2 38
2018-04-28 17:00:00 18.8 13 Norte 34 Sudoeste 0 909.5 -2.1 38
2018-04-28 16:00:00 21.4 20 Sur 35 Sur 0 909.9 -2 33
2018-04-28 15:00:00 20.4 17 Sudoeste 28 Sudoeste 0 910.8 -1.1 34
2018-04-28 14:00:00 18.2 7 Oeste 22 Oeste 0 911.6 0 45
2018-04-28 13:00:00 16.3 11 Oeste 23 Oeste 0 911.9 0.6 51
2018-04-28 12:00:00 14.6 8 Oeste 23 Noroeste 0 911.9 0.7 64
2018-04-28 11:00:00 12.1 13 Noroeste 23 Noroeste 0 911.6 0.7 77
2018-04-28 10:00:00 10.6 8 Noroeste 23 Noroeste 0 911.3 0 79
2018-04-28 09:00:00 10.7 5 Noroeste 21 Noroeste 0 911.2 -0.5 72
2018-04-28 08:00:00 10.1 4 Norte 14 Noroeste 0 910.9 -1.4 67
2018-04-28 07:00:00 11 9 Norte 14 Noroeste 0 911.3 -1.4 62
2018-04-28 06:00:00 11 8 Norte 15 Noroeste 0 911.7 -1.5 63
2018-04-28 05:00:00 12.7 10 Noroeste 19 Noroeste 0 912.3 -0.6 57
2018-04-28 04:00:00 13.5 12 Noroeste 22 Noroeste 0 912.7 -0.7 60
2018-04-28 03:00:00 13.7 8 Noroeste 22 Norte 0 913.2 -0.1 61
2018-04-28 02:00:00 13.4 9 Noroeste 13 Noroeste 0 912.9 0.2 63
2018-04-28 01:00:00 13.8 3 Norte 12 Sudoeste 0 913.4 1.1 60
2018-04-28 00:00:00 14.9 5 Sur 23 Sudoeste 0 913.3 1.6 58
2018-04-27 23:00:00 16.1 13 Sudoeste 36 Sudoeste 0.1 912.7 0.7 54
2018-04-27 22:00:00 20.4 19 Oeste 36 Noroeste 0 912.3 0.3 36
2018-04-27 21:00:00 22.1 23 Oeste 39 Sudoeste 0 911.7 -0.7 33
2018-04-27 20:00:00 21.1 17 Noroeste 41 Oeste 0 912 -1 37
2018-04-27 19:00:00 22.2 21 Noroeste 37 Noroeste 0 912 -1.6 32
2018-04-27 18:00:00 23.1 19 Noroeste 39 Noroeste 0 912.4 -2 32
2018-04-27 17:00:00 22.2 19 Noroeste 37 Oeste 0 913 -1.8 36
2018-04-27 16:00:00 21.3 19 Noroeste 37 Noroeste 0 913.6 -1.1 39
2018-04-27 15:00:00 19.7 19 Noroeste 39 Oeste 0 914.4 -0.2 47
2018-04-27 14:00:00 18 22 Noroeste 36 Noroeste 0 914.8 0.4 59
2018-04-27 13:00:00 16.7 22 Noroeste 36 Noroeste 0 914.7 0.6 67
2018-04-27 12:00:00 15 22 Noroeste 33 Noroeste 0 914.6 0.8 77
2018-04-27 11:00:00 13.2 16 Noroeste 26 Noroeste 0 914.4 0.6 86
2018-04-27 10:00:00 12.1 11 Noroeste 21 Noroeste 0 914.1 0.2 88
2018-04-27 09:00:00 11.8 13 Noroeste 28 Noroeste 0 913.8 -0.2 87
2018-04-27 08:00:00 12.2 19 Noroeste 28 Noroeste 0 913.8 -0.7 82
2018-04-27 07:00:00 10.7 0 Calma -- -- 0 913.9 -1.6 82
2018-04-27 06:00:00 11.1 0 Calma 13 Este 0 914 -1.9 84
2018-04-27 05:00:00 10.5 6 Sudeste 12 Sudeste 0 914.5 -1.7 88
2018-04-27 04:00:00 10.6 9 Sudeste 15 Sudeste 0 915.5 -0.9 87
2018-04-27 03:00:00 11 9 Sudeste 15 Sudeste 0 915.9 -0.5 84
2018-04-27 02:00:00 11.9 4 Sur 13 Sur 0 916.2 0.2 80
2018-04-27 01:00:00 12.8 6 Sur 13 Sur 0 916.4 0.7 74
2018-04-27 00:00:00 13.9 12 Sur 21 Sur 0 916.4 0.7 65
2018-04-26 23:00:00 16 13 Sur 27 Sudoeste 0 916 -- 51
2018-04-26 22:00:00 18.8 13 Sur 22 Sur 0 915.7 -0.3 40
2018-04-26 21:00:00 20.4 11 Sudeste 22 Sur 0 915.7 -0.6 37
2018-04-26 20:00:00 -- 8 Sudeste 23 Este 0 -- -- --
2018-04-26 19:00:00 22 10 Sudeste 22 Sudeste 0 916 -0.9 38
2018-04-26 18:00:00 22.2 12 Sudeste 28 Sudeste 0 916.3 -1.1 39
2018-04-26 17:00:00 21.6 15 Sudeste 26 Sudeste 0 916.8 -0.8 38
2018-04-26 16:00:00 21.1 13 Este 26 Este 0 916.9 -0.8 38
2018-04-26 15:00:00 21 12 Este 31 Sudeste 0 917.4 -0.1 42
2018-04-26 14:00:00 20.2 13 Este 27 Sudeste 0 917.6 0.7 46
2018-04-26 13:00:00 15.1 20 Sudeste 33 Sudeste 0 917.7 1.2 58
2018-04-26 12:00:00 13.6 5 Sur 12 Este 0 917.5 1.8 64
2018-04-26 11:00:00 11.8 7 Este 14 Este 0 916.9 1.2 61
2018-04-26 10:00:00 10.2 4 Nordeste 12 Nordeste 0 916.5 0.4 64
2018-04-26 09:00:00 10.8 8 Nordeste 19 Este 0 915.7 -0.6 61
2018-04-26 08:00:00 9.6 8 Nordeste 23 Nordeste 0 915.7 -0.4 66
2018-04-26 07:00:00 9.9 3 Norte 12 Nordeste 0 916.1 -0.9 69
2018-04-26 06:00:00 11.3 3 Oeste 15 Este 0 916.3 -0.9 66
2018-04-26 05:00:00 10.5 9 Este 15 Este 0 916.1 -1.5 71
2018-04-26 04:00:00 9.9 12 Sudeste 18 Sudeste 0 917 -0.4 73
2018-04-26 03:00:00 10.7 13 Este 18 Este 0 917.2 -0.1 66
2018-04-26 02:00:00 11.4 9 Este 18 Sudeste 0 917.6 0.8 61
2018-04-26 01:00:00 12.3 14 Sudeste 28 Sudeste 0 917.4 1.4 60
2018-04-26 00:00:00 12.4 6 Este 19 Este 0 917.3 1.5 54
2018-04-25 23:00:00 14 8 Este 29 Este 0 916.8 1 46
2018-04-25 22:00:00 15.5 11 Este 29 Sudeste 0 916 0.1 43
2018-04-25 21:00:00 16.9 19 Este 31 Este 0 915.8 -0.4 42
2018-04-25 20:00:00 16.7 22 Este 35 Sudeste 0 915.8 -0.9 44
2018-04-25 19:00:00 18 22 Este 32 Sudeste 0 915.9 -0.9 41
2018-04-25 18:00:00 19.3 21 Sudeste 32 Sudeste 0 916.2 -1 39
2018-04-25 17:00:00 18.8 25 Sudeste 37 Sudeste 0 916.7 -0.8 38
2018-04-25 16:00:00 19.5 22 Sudeste 36 Este 0 916.8 0 36
2018-04-25 15:00:00 19.6 21 Sudeste 39 Sudeste 0 917.2 0.5 38
2018-04-25 14:00:00 18.6 23 Sudeste 33 Sudeste 0 917.5 1.3 42
2018-04-25 13:00:00 16.7 6 Sudeste 12 Sudeste 0 916.8 0.9 48
2018-04-25 12:00:00 13.1 6 Sudoeste 10 Sudoeste 0 916.7 0.4 62
2018-04-25 11:00:00 10.1 0 Calma 14 Nordeste 0 916.2 0.4 67
2018-04-25 10:00:00 9.9 5 Nordeste 13 Nordeste 0 915.9 0.8 61
2018-04-25 09:00:00 9.5 0 Calma 12 Nordeste 0 916.3 0.3 60
2018-04-25 08:00:00 10.5 6 Este 15 Nordeste 0 915.8 -0.5 57
2018-04-25 07:00:00 10.9 8 Nordeste 15 Nordeste 0 915.1 -2 57
2018-04-25 06:00:00 9.6 0 Calma 9 Este 0 916 -1 58
2018-04-25 05:00:00 10 2 Sudeste 14 Este 0 916.3 -0.4 57
2018-04-25 04:00:00 10.1 4 Sur 23 Sudoeste 0 917.1 0.3 57
2018-04-25 03:00:00 10.7 13 Sudeste 30 Sudeste 0 917 0.2 55
2018-04-25 02:00:00 11.3 12 Este 29 Este 0 916.7 0.2 51
2018-04-25 01:00:00 11.5 13 Este 27 Este 0 916.8 0.4 51
2018-04-25 00:00:00 12.1 5 Este 30 Este 0 916.8 0.7 50
2018-04-24 23:00:00 13.6 19 Este 33 Sudeste 0 916.5 0.6 45
2018-04-24 22:00:00 16.4 24 Sudeste 38 Sudeste 0 916.4 0.3 39
2018-04-24 21:00:00 19.5 27 Este 42 Este 0 916.1 -0.5 36
2018-04-24 20:00:00 22.2 22 Este 38 Sudeste 0 915.9 -1.5 33
2018-04-24 19:00:00 22.2 23 Este 45 Este 0 916.1 -1.3 34
2018-04-24 18:00:00 22.1 27 Este 47 Este 0 916.6 -1.3 34
2018-04-24 17:00:00 22.5 30 Este 49 Este 0 917.4 -0.1 35
2018-04-24 16:00:00 21 30 Este 47 Sudeste 0 917.4 -0.1 38
2018-04-24 15:00:00 20 32 Sudeste 50 Sudeste 0 917.9 1.1 40
2018-04-24 14:00:00 17.8 36 Sudeste 55 Sudeste 0 917.5 1 45
2018-04-24 13:00:00 15.6 26 Sudeste 44 Este 0 917.5 1.5 47
2018-04-24 12:00:00 14.5 21 Sudeste 34 Sudeste 0 916.8 0.9 53
2018-04-24 11:00:00 10.8 3 Norte 22 Norte 0 916.5 0.7 57
2018-04-24 10:00:00 12.9 5 Sudeste 26 Este 0 916 -0.2 48
2018-04-24 09:00:00 12.9 6 Nordeste 47 Este 0 915.9 -1.6 47
2018-04-24 08:00:00 12.2 17 Este 40 Sudeste 0 915.8 -2.1 49
2018-04-24 07:00:00 10.6 12 Este 32 Este 0 916.2 -1.3 54
2018-04-24 06:00:00 10.6 10 Sudeste 14 Sudeste 0 917.5 0.3 55
2018-04-24 05:00:00 11.4 8 Sur 25 Sudoeste 0 917.9 -0.3 52
2018-04-24 04:00:00 12.7 8 Sudeste 36 Este 0 917.5 -0.5 42
2018-04-24 03:00:00 10.4 14 Este 28 Sudeste 0 917.2 -0.3 55
2018-04-24 02:00:00 10.6 14 Sudeste 27 Este 0 918.2 1.7 50
2018-04-24 01:00:00 12.4 21 Sudeste 36 Este 0 918 1.2 42
2018-04-24 00:00:00 13.3 10 Sudeste 28 Este 0 917.5 0.3 36
2018-04-23 23:00:00 13.8 14 Este 31 Este 0 916.5 -0.7 38
2018-04-23 22:00:00 16.5 17 Este 34 Este 0 916.8 -0.3 35
2018-04-23 21:00:00 18.3 21 Sudeste 32 Este 0 917.2 -0.5 36
2018-04-23 20:00:00 21.2 24 Sudeste 32 Sudeste 0 917.2 -1.2 32
2018-04-23 19:00:00 23 18 Sudeste 33 Sudeste 0 917.1 -1.5 30
2018-04-23 18:00:00 22.9 12 Este 30 Sudeste 0 917.7 -1.4 30
2018-04-23 17:00:00 21.4 10 Sudeste 23 Sudeste 0 918.4 -0.9 31
2018-04-23 16:00:00 20.5 15 Sudeste 26 Sudeste 0 918.6 0.3 31
2018-04-23 15:00:00 19.7 14 Sudeste 27 Sudeste 0 919.1 1.3 32
2018-04-23 14:00:00 18.1 18 Sudeste 30 Sudeste 0 919.3 0.9 35
2018-04-23 13:00:00 17.4 12 Sudeste 22 Sudeste 0 918.3 0.3 44
2018-04-23 12:00:00 12.6 3 Oeste 26 Nordeste 0 917.8 0.3 64
2018-04-23 11:00:00 11 6 Noroeste 17 Oeste 0 918.4 2.2 65
2018-04-23 10:00:00 11.8 14 Oeste 38 Nordeste 0 918 0.2 52
2018-04-23 09:00:00 10.2 5 Oeste 31 Sudoeste 0 917.5 -0.6 64
2018-04-23 08:00:00 11.6 14 Nordeste 29 Nordeste 0 916.2 -2.2 55
2018-04-23 07:00:00 9.8 4 Sur 16 Nordeste 0 917.8 0.1 70
2018-04-23 06:00:00 9.4 3 Este 16 Norte 0 918.1 0.7 72
2018-04-23 05:00:00 9.6 4 Norte 15 Este 0 918.4 1.1 67
2018-04-23 04:00:00 9.4 9 Este 28 Sudeste 0 917.7 0.5 68
2018-04-23 03:00:00 9.6 17 Sudeste 26 Sudeste 0 917.4 0.4 67
2018-04-23 02:00:00 9.8 19 Sudeste 24 Sudeste 0 917.3 0.9 64
2018-04-23 01:00:00 10.6 15 Sudeste 26 Sudeste 0 917.2 1.1 60
2018-04-23 00:00:00 11.9 16 Sudeste 29 Sudeste 0 917 0.9 55
2018-04-22 23:00:00 13.7 19 Sudeste 32 Sudeste 0 916.4 0.6 49
2018-04-22 22:00:00 16.1 22 Sudeste 34 Sudeste 0 916.1 1 44
2018-04-22 21:00:00 18.3 19 Este 28 Sudeste 0 916.1 0.1 41
2018-04-22 20:00:00 19.4 22 Sudeste 42 Sudeste 0 915.8 -0.9 36
2018-04-22 19:00:00 20.6 30 Sudeste 44 Sudeste 0 915.1 -1.7 33
2018-04-22 18:00:00 19.2 25 Sudeste 38 Sudeste 0 916 -1.2 37
2018-04-22 17:00:00 19.5 23 Sudeste 39 Sudeste 0 916.7 -0.8 37
2018-04-22 16:00:00 19.8 25 Sudeste 42 Sudeste 0 916.8 -0.7 34
2018-04-22 15:00:00 18.4 26 Sudeste 38 Sudeste 0 917.2 -0.2 38
2018-04-22 14:00:00 17.5 21 Sudeste 33 Sudeste 0 917.5 0.7 43
2018-04-22 13:00:00 15.7 17 Sudeste 24 Sudeste 0 917.5 1 54
2018-04-22 12:00:00 13 15 Sudeste 22 Este 0 917.4 0.9 68
2018-04-22 11:00:00 9.6 13 Sudeste 20 Este 0 916.8 0.4 82
2018-04-22 10:00:00 8.1 7 Este 9 Este 0 916.5 -0.5 84
2018-04-22 09:00:00 8.7 5 Sudoeste 15 Este 0 916.5 -0.8 83
2018-04-22 08:00:00 8.6 6 Este 18 Sudeste 0 916.4 -1.5 85
2018-04-22 07:00:00 8.6 14 Sudeste 20 Sudeste 0 917 -1.1 85
2018-04-22 06:00:00 8.7 14 Sudeste 18 Sudeste 0 917.3 -0.9 83
2018-04-22 05:00:00 9 11 Sur 19 Sudeste 0 917.9 -0.2 83
2018-04-22 04:00:00 9.1 17 Sudeste 22 Sudeste 0 918.1 -0.2 82
2018-04-22 03:00:00 9.2 17 Sudeste 28 Sudeste 0 918.2 0.5 80
2018-04-22 02:00:00 9.4 19 Sudeste 28 Sudeste 0 918.1 0.5 80
2018-04-22 01:00:00 10.3 21 Sudeste 36 Sudeste 0 918.3 1 75
2018-04-22 00:00:00 11.1 26 Sudeste 35 Sudeste 0 917.7 0 70